sensor_id;sensor_type;location;lat;lon;timestamp;P1;durP1;ratioP1;P2;durP2;ratioP2
26411;SDS011;59168;;;2022-07-25T00:00:04;1.98;;;1.88;;
26411;SDS011;59168;;;2022-07-25T00:02:33;2.13;;;1.92;;
26411;SDS011;59168;;;2022-07-25T00:04:59;2.28;;;2.08;;
26411;SDS011;59168;;;2022-07-25T00:07:25;2.92;;;1.92;;
26411;SDS011;59168;;;2022-07-25T00:09:51;3.33;;;1.90;;
26411;SDS011;59168;;;2022-07-25T00:12:17;2.67;;;2.15;;
26411;SDS011;59168;;;2022-07-25T00:14:43;2.10;;;1.88;;
26411;SDS011;59168;;;2022-07-25T00:17:08;3.97;;;1.92;;
26411;SDS011;59168;;;2022-07-25T00:19:34;2.20;;;1.80;;
26411;SDS011;59168;;;2022-07-25T00:21:59;2.60;;;2.00;;
26411;SDS011;59168;;;2022-07-25T00:24:25;1.90;;;1.73;;
26411;SDS011;59168;;;2022-07-25T00:26:51;1.95;;;1.63;;
26411;SDS011;59168;;;2022-07-25T00:29:16;2.03;;;1.83;;
26411;SDS011;59168;;;2022-07-25T00:31:42;2.33;;;1.90;;
26411;SDS011;59168;;;2022-07-25T00:34:07;2.05;;;1.95;;
26411;SDS011;59168;;;2022-07-25T00:36:33;2.20;;;2.00;;
26411;SDS011;59168;;;2022-07-25T00:38:58;2.47;;;1.80;;
26411;SDS011;59168;;;2022-07-25T00:41:24;1.73;;;1.63;;
26411;SDS011;59168;;;2022-07-25T00:43:50;1.70;;;1.60;;
26411;SDS011;59168;;;2022-07-25T00:46:15;1.92;;;1.83;;
26411;SDS011;59168;;;2022-07-25T00:48:42;2.83;;;2.03;;
26411;SDS011;59168;;;2022-07-25T00:51:08;2.00;;;1.63;;
26411;SDS011;59168;;;2022-07-25T00:53:35;2.13;;;1.92;;
26411;SDS011;59168;;;2022-07-25T00:56:02;2.00;;;1.90;;
26411;SDS011;59168;;;2022-07-25T00:58:28;1.80;;;1.65;;
26411;SDS011;59168;;;2022-07-25T01:00:54;1.88;;;1.77;;
26411;SDS011;59168;;;2022-07-25T01:03:19;1.90;;;1.73;;
26411;SDS011;59168;;;2022-07-25T01:05:45;2.20;;;1.60;;
26411;SDS011;59168;;;2022-07-25T01:08:11;2.58;;;1.80;;
26411;SDS011;59168;;;2022-07-25T01:10:37;1.83;;;1.60;;
26411;SDS011;59168;;;2022-07-25T01:13:03;1.60;;;1.50;;
26411;SDS011;59168;;;2022-07-25T01:15:29;1.88;;;1.63;;
26411;SDS011;59168;;;2022-07-25T01:17:55;1.90;;;1.70;;
26411;SDS011;59168;;;2022-07-25T01:20:22;2.20;;;1.80;;
26411;SDS011;59168;;;2022-07-25T01:22:50;1.55;;;1.45;;
26411;SDS011;59168;;;2022-07-25T01:25:15;2.05;;;1.80;;
26411;SDS011;59168;;;2022-07-25T01:27:42;1.77;;;1.60;;
26411;SDS011;59168;;;2022-07-25T01:30:09;1.67;;;1.58;;
26411;SDS011;59168;;;2022-07-25T01:32:36;2.33;;;2.00;;
26411;SDS011;59168;;;2022-07-25T01:35:05;2.47;;;1.63;;
26411;SDS011;59168;;;2022-07-25T01:37:32;2.47;;;1.80;;
26411;SDS011;59168;;;2022-07-25T01:39:58;1.58;;;1.48;;
26411;SDS011;59168;;;2022-07-25T01:42:24;2.53;;;1.58;;
26411;SDS011;59168;;;2022-07-25T01:44:49;1.63;;;1.52;;
26411;SDS011;59168;;;2022-07-25T01:47:15;1.77;;;1.50;;
26411;SDS011;59168;;;2022-07-25T01:49:41;2.60;;;1.60;;
26411;SDS011;59168;;;2022-07-25T01:52:08;1.67;;;1.58;;
26411;SDS011;59168;;;2022-07-25T01:54:34;2.10;;;1.90;;
26411;SDS011;59168;;;2022-07-25T01:57:00;3.08;;;1.48;;
26411;SDS011;59168;;;2022-07-25T01:59:25;2.15;;;1.60;;
26411;SDS011;59168;;;2022-07-25T02:01:51;1.90;;;1.80;;
26411;SDS011;59168;;;2022-07-25T02:04:17;1.80;;;1.70;;
26411;SDS011;59168;;;2022-07-25T02:06:42;1.65;;;1.45;;
26411;SDS011;59168;;;2022-07-25T02:09:08;2.63;;;1.80;;
26411;SDS011;59168;;;2022-07-25T02:11:34;4.30;;;1.90;;
26411;SDS011;59168;;;2022-07-25T02:14:00;2.03;;;1.70;;
26411;SDS011;59168;;;2022-07-25T02:16:26;1.67;;;1.58;;
26411;SDS011;59168;;;2022-07-25T02:18:52;1.67;;;1.58;;
26411;SDS011;59168;;;2022-07-25T02:21:18;2.05;;;1.80;;
26411;SDS011;59168;;;2022-07-25T02:23:44;1.83;;;1.73;;
26411;SDS011;59168;;;2022-07-25T02:26:10;2.30;;;1.55;;
26411;SDS011;59168;;;2022-07-25T02:28:36;2.05;;;1.60;;
26411;SDS011;59168;;;2022-07-25T02:31:02;1.67;;;1.50;;
26411;SDS011;59168;;;2022-07-25T02:33:27;2.00;;;1.80;;
26411;SDS011;59168;;;2022-07-25T02:35:53;1.70;;;1.60;;
26411;SDS011;59168;;;2022-07-25T02:38:19;1.88;;;1.77;;
26411;SDS011;59168;;;2022-07-25T02:40:45;1.75;;;1.65;;
26411;SDS011;59168;;;2022-07-25T02:43:11;2.40;;;1.83;;
26411;SDS011;59168;;;2022-07-25T02:45:37;1.83;;;1.70;;
26411;SDS011;59168;;;2022-07-25T02:48:03;3.80;;;1.67;;
26411;SDS011;59168;;;2022-07-25T02:50:29;2.03;;;1.92;;
26411;SDS011;59168;;;2022-07-25T02:52:54;1.70;;;1.60;;
26411;SDS011;59168;;;2022-07-25T02:55:20;2.95;;;1.70;;
26411;SDS011;59168;;;2022-07-25T02:57:46;2.38;;;2.08;;
26411;SDS011;59168;;;2022-07-25T03:00:12;2.00;;;1.90;;
26411;SDS011;59168;;;2022-07-25T03:02:39;2.08;;;1.85;;
26411;SDS011;59168;;;2022-07-25T03:05:06;1.95;;;1.75;;
26411;SDS011;59168;;;2022-07-25T03:07:36;2.10;;;1.58;;
26411;SDS011;59168;;;2022-07-25T03:10:03;2.85;;;1.80;;
26411;SDS011;59168;;;2022-07-25T03:12:30;3.25;;;1.98;;
26411;SDS011;59168;;;2022-07-25T03:14:57;2.17;;;1.98;;
26411;SDS011;59168;;;2022-07-25T03:17:23;3.05;;;1.90;;
26411;SDS011;59168;;;2022-07-25T03:19:48;1.98;;;1.77;;
26411;SDS011;59168;;;2022-07-25T03:22:14;2.25;;;1.90;;
26411;SDS011;59168;;;2022-07-25T03:24:40;3.28;;;1.70;;
26411;SDS011;59168;;;2022-07-25T03:27:05;3.47;;;1.73;;
26411;SDS011;59168;;;2022-07-25T03:29:31;1.77;;;1.67;;
26411;SDS011;59168;;;2022-07-25T03:31:57;2.63;;;1.88;;
26411;SDS011;59168;;;2022-07-25T03:34:23;2.53;;;2.20;;
26411;SDS011;59168;;;2022-07-25T03:36:49;1.98;;;1.88;;
26411;SDS011;59168;;;2022-07-25T03:39:14;1.95;;;1.83;;
26411;SDS011;59168;;;2022-07-25T03:41:40;2.75;;;1.80;;
26411;SDS011;59168;;;2022-07-25T03:44:06;2.15;;;1.95;;
26411;SDS011;59168;;;2022-07-25T03:46:31;2.95;;;1.80;;
26411;SDS011;59168;;;2022-07-25T03:48:57;4.35;;;2.10;;
26411;SDS011;59168;;;2022-07-25T03:51:23;1.92;;;1.83;;
26411;SDS011;59168;;;2022-07-25T03:53:48;1.88;;;1.77;;
26411;SDS011;59168;;;2022-07-25T03:56:26;3.83;;;2.10;;
26411;SDS011;59168;;;2022-07-25T03:58:56;2.97;;;1.77;;
26411;SDS011;59168;;;2022-07-25T04:01:22;1.90;;;1.80;;
26411;SDS011;59168;;;2022-07-25T04:03:48;2.08;;;1.98;;
26411;SDS011;59168;;;2022-07-25T04:06:14;4.07;;;1.90;;
26411;SDS011;59168;;;2022-07-25T04:08:39;3.53;;;2.03;;
26411;SDS011;59168;;;2022-07-25T04:11:05;6.30;;;2.15;;
26411;SDS011;59168;;;2022-07-25T04:13:31;2.28;;;2.03;;
26411;SDS011;59168;;;2022-07-25T04:15:56;2.85;;;2.00;;
26411;SDS011;59168;;;2022-07-25T04:18:22;3.10;;;2.20;;
26411;SDS011;59168;;;2022-07-25T04:20:47;2.55;;;2.05;;
26411;SDS011;59168;;;2022-07-25T04:23:13;2.72;;;1.95;;
26411;SDS011;59168;;;2022-07-25T04:25:39;2.53;;;2.15;;
26411;SDS011;59168;;;2022-07-25T04:28:04;4.13;;;2.17;;
26411;SDS011;59168;;;2022-07-25T04:30:30;3.53;;;2.10;;
26411;SDS011;59168;;;2022-07-25T04:32:55;2.45;;;1.63;;
26411;SDS011;59168;;;2022-07-25T04:35:21;4.00;;;2.15;;
26411;SDS011;59168;;;2022-07-25T04:37:47;3.45;;;2.10;;
26411;SDS011;59168;;;2022-07-25T04:40:13;2.63;;;1.70;;
26411;SDS011;59168;;;2022-07-25T04:42:38;3.00;;;1.60;;
26411;SDS011;59168;;;2022-07-25T04:45:04;4.50;;;2.10;;
26411;SDS011;59168;;;2022-07-25T04:47:30;1.90;;;1.55;;
26411;SDS011;59168;;;2022-07-25T04:49:56;5.63;;;2.40;;
26411;SDS011;59168;;;2022-07-25T04:52:21;2.83;;;1.90;;
26411;SDS011;59168;;;2022-07-25T04:54:47;3.42;;;2.22;;
26411;SDS011;59168;;;2022-07-25T04:57:12;3.47;;;1.70;;
26411;SDS011;59168;;;2022-07-25T04:59:38;2.08;;;1.88;;
26411;SDS011;59168;;;2022-07-25T05:02:04;1.98;;;1.88;;
26411;SDS011;59168;;;2022-07-25T05:04:29;2.35;;;2.00;;
26411;SDS011;59168;;;2022-07-25T05:06:55;2.95;;;1.80;;
26411;SDS011;59168;;;2022-07-25T05:09:21;4.55;;;1.90;;
26411;SDS011;59168;;;2022-07-25T05:11:46;1.83;;;1.73;;
26411;SDS011;59168;;;2022-07-25T05:14:12;2.72;;;1.80;;
26411;SDS011;59168;;;2022-07-25T05:16:37;4.32;;;2.03;;
26411;SDS011;59168;;;2022-07-25T05:19:03;7.85;;;2.05;;
26411;SDS011;59168;;;2022-07-25T05:21:29;4.40;;;1.98;;
26411;SDS011;59168;;;2022-07-25T05:23:54;2.67;;;1.70;;
26411;SDS011;59168;;;2022-07-25T05:26:20;2.63;;;1.80;;
26411;SDS011;59168;;;2022-07-25T05:28:46;2.40;;;2.00;;
26411;SDS011;59168;;;2022-07-25T05:31:12;3.55;;;2.00;;
26411;SDS011;59168;;;2022-07-25T05:33:37;2.83;;;2.17;;
26411;SDS011;59168;;;2022-07-25T05:36:03;4.55;;;2.40;;
26411;SDS011;59168;;;2022-07-25T05:38:29;4.53;;;2.25;;
26411;SDS011;59168;;;2022-07-25T05:40:55;3.78;;;2.10;;
26411;SDS011;59168;;;2022-07-25T05:43:20;3.10;;;1.90;;
26411;SDS011;59168;;;2022-07-25T05:45:46;2.00;;;1.90;;
26411;SDS011;59168;;;2022-07-25T05:48:12;2.20;;;2.00;;
26411;SDS011;59168;;;2022-07-25T05:50:38;2.50;;;2.20;;
26411;SDS011;59168;;;2022-07-25T05:53:04;3.15;;;2.40;;
26411;SDS011;59168;;;2022-07-25T05:55:30;4.25;;;2.08;;
26411;SDS011;59168;;;2022-07-25T05:57:56;4.63;;;2.30;;
26411;SDS011;59168;;;2022-07-25T06:00:22;3.55;;;2.40;;
26411;SDS011;59168;;;2022-07-25T06:02:48;2.30;;;2.20;;
26411;SDS011;59168;;;2022-07-25T06:05:14;2.60;;;2.40;;
26411;SDS011;59168;;;2022-07-25T06:07:39;5.28;;;3.60;;
26411;SDS011;59168;;;2022-07-25T06:10:05;4.18;;;2.17;;
26411;SDS011;59168;;;2022-07-25T06:12:32;7.70;;;2.67;;
26411;SDS011;59168;;;2022-07-25T06:15:01;5.05;;;2.40;;
26411;SDS011;59168;;;2022-07-25T06:17:26;2.78;;;2.30;;
26411;SDS011;59168;;;2022-07-25T06:19:52;4.45;;;2.42;;
26411;SDS011;59168;;;2022-07-25T06:22:18;2.78;;;2.25;;
26411;SDS011;59168;;;2022-07-25T06:24:44;2.33;;;2.22;;
26411;SDS011;59168;;;2022-07-25T06:27:09;2.45;;;2.25;;
26411;SDS011;59168;;;2022-07-25T06:29:36;3.88;;;2.80;;
26411;SDS011;59168;;;2022-07-25T06:32:02;4.57;;;2.70;;
26411;SDS011;59168;;;2022-07-25T06:34:28;3.50;;;2.70;;
26411;SDS011;59168;;;2022-07-25T06:36:54;6.70;;;2.53;;
26411;SDS011;59168;;;2022-07-25T06:39:21;3.63;;;2.50;;
26411;SDS011;59168;;;2022-07-25T06:41:47;4.85;;;2.80;;
26411;SDS011;59168;;;2022-07-25T06:44:12;4.93;;;2.78;;
26411;SDS011;59168;;;2022-07-25T06:46:38;4.72;;;2.72;;
26411;SDS011;59168;;;2022-07-25T06:49:04;2.92;;;2.63;;
26411;SDS011;59168;;;2022-07-25T06:51:29;4.13;;;2.63;;
26411;SDS011;59168;;;2022-07-25T06:53:55;3.15;;;2.72;;
26411;SDS011;59168;;;2022-07-25T06:56:21;7.05;;;3.58;;
26411;SDS011;59168;;;2022-07-25T06:58:46;8.30;;;3.35;;
26411;SDS011;59168;;;2022-07-25T07:01:12;4.45;;;3.60;;
26411;SDS011;59168;;;2022-07-25T07:03:38;3.60;;;3.30;;
26411;SDS011;59168;;;2022-07-25T07:06:07;4.18;;;3.78;;
26411;SDS011;59168;;;2022-07-25T07:08:33;5.50;;;4.00;;
26411;SDS011;59168;;;2022-07-25T07:10:59;5.05;;;3.88;;
26411;SDS011;59168;;;2022-07-25T07:13:25;5.03;;;3.80;;
26411;SDS011;59168;;;2022-07-25T07:15:51;4.85;;;3.97;;
26411;SDS011;59168;;;2022-07-25T07:18:17;4.63;;;3.90;;
26411;SDS011;59168;;;2022-07-25T07:20:44;5.57;;;3.55;;
26411;SDS011;59168;;;2022-07-25T07:23:11;3.60;;;3.30;;
26411;SDS011;59168;;;2022-07-25T07:25:37;5.72;;;4.18;;
26411;SDS011;59168;;;2022-07-25T07:28:03;4.25;;;3.95;;
26411;SDS011;59168;;;2022-07-25T07:30:29;6.93;;;4.15;;
26411;SDS011;59168;;;2022-07-25T07:32:55;4.80;;;4.07;;
26411;SDS011;59168;;;2022-07-25T07:35:21;4.47;;;4.05;;
26411;SDS011;59168;;;2022-07-25T07:37:47;6.47;;;4.15;;
26411;SDS011;59168;;;2022-07-25T07:40:13;9.20;;;4.28;;
26411;SDS011;59168;;;2022-07-25T07:42:39;7.78;;;4.43;;
26411;SDS011;59168;;;2022-07-25T07:45:14;7.38;;;4.53;;
26411;SDS011;59168;;;2022-07-25T07:47:40;5.75;;;4.30;;
26411;SDS011;59168;;;2022-07-25T07:50:06;6.00;;;4.47;;
26411;SDS011;59168;;;2022-07-25T07:52:32;4.78;;;4.38;;
26411;SDS011;59168;;;2022-07-25T07:54:58;5.05;;;4.22;;
26411;SDS011;59168;;;2022-07-25T07:57:41;4.88;;;4.47;;
26411;SDS011;59168;;;2022-07-25T08:00:07;5.32;;;4.82;;
26411;SDS011;59168;;;2022-07-25T08:02:40;5.70;;;4.80;;
26411;SDS011;59168;;;2022-07-25T08:05:07;6.00;;;5.10;;
26411;SDS011;59168;;;2022-07-25T08:07:33;7.80;;;4.90;;
26411;SDS011;59168;;;2022-07-25T08:09:58;6.28;;;5.20;;
26411;SDS011;59168;;;2022-07-25T08:12:24;7.55;;;5.50;;
26411;SDS011;59168;;;2022-07-25T08:14:49;7.82;;;5.45;;
26411;SDS011;59168;;;2022-07-25T08:17:15;9.10;;;5.57;;
26411;SDS011;59168;;;2022-07-25T08:19:40;9.27;;;5.70;;
26411;SDS011;59168;;;2022-07-25T08:22:06;7.43;;;5.40;;
26411;SDS011;59168;;;2022-07-25T08:24:32;6.57;;;5.30;;
26411;SDS011;59168;;;2022-07-25T08:26:57;5.55;;;5.05;;
26411;SDS011;59168;;;2022-07-25T08:29:23;6.65;;;5.20;;
26411;SDS011;59168;;;2022-07-25T08:31:48;7.25;;;5.00;;
26411;SDS011;59168;;;2022-07-25T08:34:14;5.55;;;5.05;;
26411;SDS011;59168;;;2022-07-25T08:36:40;5.72;;;5.00;;
26411;SDS011;59168;;;2022-07-25T08:39:05;6.88;;;5.15;;
26411;SDS011;59168;;;2022-07-25T08:41:32;5.93;;;4.80;;
26411;SDS011;59168;;;2022-07-25T08:43:57;6.63;;;4.88;;
26411;SDS011;59168;;;2022-07-25T08:46:24;5.63;;;4.70;;
26411;SDS011;59168;;;2022-07-25T08:48:52;5.38;;;4.88;;
26411;SDS011;59168;;;2022-07-25T08:51:17;5.78;;;5.03;;
26411;SDS011;59168;;;2022-07-25T08:53:43;5.75;;;5.15;;
26411;SDS011;59168;;;2022-07-25T08:56:09;7.78;;;5.32;;
26411;SDS011;59168;;;2022-07-25T08:58:35;8.52;;;5.30;;
26411;SDS011;59168;;;2022-07-25T09:01:00;8.15;;;5.63;;
26411;SDS011;59168;;;2022-07-25T09:03:26;6.72;;;5.35;;
26411;SDS011;59168;;;2022-07-25T09:05:52;9.30;;;5.70;;
26411;SDS011;59168;;;2022-07-25T09:08:18;6.20;;;5.70;;
26411;SDS011;59168;;;2022-07-25T09:10:47;8.25;;;5.45;;
26411;SDS011;59168;;;2022-07-25T09:13:15;6.28;;;5.28;;
26411;SDS011;59168;;;2022-07-25T09:15:48;7.57;;;5.63;;
26411;SDS011;59168;;;2022-07-25T09:18:16;6.70;;;5.95;;
26411;SDS011;59168;;;2022-07-25T09:23:13;7.90;;;5.90;;
26411;SDS011;59168;;;2022-07-25T09:25:50;9.10;;;6.47;;
26411;SDS011;59168;;;2022-07-25T09:28:16;9.27;;;6.20;;
26411;SDS011;59168;;;2022-07-25T09:30:59;6.97;;;6.28;;
26411;SDS011;59168;;;2022-07-25T09:33:26;10.25;;;9.20;;
26411;SDS011;59168;;;2022-07-25T09:35:53;10.13;;;6.18;;
26411;SDS011;59168;;;2022-07-25T09:38:19;6.97;;;6.28;;
26411;SDS011;59168;;;2022-07-25T09:40:52;7.32;;;6.65;;
26411;SDS011;59168;;;2022-07-25T09:43:33;6.63;;;6.03;;
26411;SDS011;59168;;;2022-07-25T09:46:03;8.82;;;6.43;;
26411;SDS011;59168;;;2022-07-25T09:48:29;6.65;;;5.95;;
26411;SDS011;59168;;;2022-07-25T09:50:56;6.90;;;6.35;;
26411;SDS011;59168;;;2022-07-25T09:53:22;6.63;;;6.03;;
26411;SDS011;59168;;;2022-07-25T09:55:48;11.05;;;6.72;;
26411;SDS011;59168;;;2022-07-25T09:58:14;7.00;;;6.25;;
26411;SDS011;59168;;;2022-07-25T10:00:40;6.80;;;6.20;;
26411;SDS011;59168;;;2022-07-25T10:03:17;7.07;;;6.38;;
26411;SDS011;59168;;;2022-07-25T10:08:28;9.85;;;6.55;;
26411;SDS011;59168;;;2022-07-25T10:10:58;7.32;;;6.70;;
26411;SDS011;59168;;;2022-07-25T10:13:28;6.72;;;6.03;;
26411;SDS011;59168;;;2022-07-25T10:15:59;11.45;;;6.50;;
26411;SDS011;59168;;;2022-07-25T10:18:25;7.30;;;6.43;;
26411;SDS011;59168;;;2022-07-25T10:20:54;7.30;;;6.60;;
26411;SDS011;59168;;;2022-07-25T10:23:31;7.47;;;6.88;;
26411;SDS011;59168;;;2022-07-25T10:26:01;7.45;;;6.85;;
26411;SDS011;59168;;;2022-07-25T10:28:35;9.55;;;7.55;;
26411;SDS011;59168;;;2022-07-25T10:31:13;7.75;;;7.05;;
26411;SDS011;59168;;;2022-07-25T10:33:40;8.75;;;7.57;;
26411;SDS011;59168;;;2022-07-25T10:36:06;9.88;;;7.75;;
26411;SDS011;59168;;;2022-07-25T10:38:36;7.38;;;6.78;;
26411;SDS011;59168;;;2022-07-25T10:41:04;9.80;;;6.53;;
26411;SDS011;59168;;;2022-07-25T10:43:36;7.55;;;6.85;;
26411;SDS011;59168;;;2022-07-25T10:46:11;7.95;;;7.18;;
26411;SDS011;59168;;;2022-07-25T10:48:38;8.73;;;7.03;;
26411;SDS011;59168;;;2022-07-25T10:51:05;7.18;;;6.25;;
26411;SDS011;59168;;;2022-07-25T10:53:43;7.17;;;6.47;;
26411;SDS011;59168;;;2022-07-25T10:56:15;7.68;;;6.90;;
26411;SDS011;59168;;;2022-07-25T11:01:12;8.97;;;6.30;;
26411;SDS011;59168;;;2022-07-25T11:03:43;7.35;;;6.65;;
26411;SDS011;59168;;;2022-07-25T11:06:09;7.85;;;7.03;;
26411;SDS011;59168;;;2022-07-25T11:08:36;6.93;;;6.15;;
26411;SDS011;59168;;;2022-07-25T11:11:01;8.00;;;7.30;;
26411;SDS011;59168;;;2022-07-25T11:13:27;7.75;;;6.60;;
26411;SDS011;59168;;;2022-07-25T11:15:56;7.75;;;6.43;;
26411;SDS011;59168;;;2022-07-25T11:18:32;7.18;;;6.15;;
26411;SDS011;59168;;;2022-07-25T11:21:00;7.18;;;6.57;;
26411;SDS011;59168;;;2022-07-25T11:23:27;6.78;;;6.13;;
26411;SDS011;59168;;;2022-07-25T11:28:49;6.45;;;6.00;;
26411;SDS011;59168;;;2022-07-25T11:31:15;7.00;;;6.28;;
26411;SDS011;59168;;;2022-07-25T11:33:44;6.13;;;5.63;;
26411;SDS011;59168;;;2022-07-25T11:36:12;7.22;;;6.05;;
26411;SDS011;59168;;;2022-07-25T11:38:38;7.10;;;6.32;;
26411;SDS011;59168;;;2022-07-25T11:41:06;7.10;;;6.40;;
26411;SDS011;59168;;;2022-07-25T11:43:32;6.80;;;6.30;;
26411;SDS011;59168;;;2022-07-25T11:46:02;7.00;;;6.25;;
26411;SDS011;59168;;;2022-07-25T11:48:35;6.90;;;6.30;;
26411;SDS011;59168;;;2022-07-25T11:53:39;8.32;;;5.93;;
26411;SDS011;59168;;;2022-07-25T11:56:15;9.52;;;6.63;;
26411;SDS011;59168;;;2022-07-25T11:58:48;8.55;;;6.43;;
26411;SDS011;59168;;;2022-07-25T12:01:21;9.68;;;6.13;;
26411;SDS011;59168;;;2022-07-25T12:03:48;6.68;;;6.15;;
26411;SDS011;59168;;;2022-07-25T12:06:14;8.68;;;5.95;;
26411;SDS011;59168;;;2022-07-25T12:08:40;6.40;;;5.90;;
26411;SDS011;59168;;;2022-07-25T12:11:16;6.20;;;5.70;;
26411;SDS011;59168;;;2022-07-25T12:13:43;7.05;;;6.25;;
26411;SDS011;59168;;;2022-07-25T12:16:09;7.20;;;6.40;;
26411;SDS011;59168;;;2022-07-25T12:18:36;6.40;;;5.80;;
26411;SDS011;59168;;;2022-07-25T12:21:02;6.63;;;6.03;;
26411;SDS011;59168;;;2022-07-25T12:23:28;7.53;;;6.15;;
26411;SDS011;59168;;;2022-07-25T12:25:54;6.90;;;6.40;;
26411;SDS011;59168;;;2022-07-25T12:28:19;6.78;;;6.28;;
26411;SDS011;59168;;;2022-07-25T12:30:46;7.10;;;6.50;;
26411;SDS011;59168;;;2022-07-25T12:33:12;6.85;;;6.30;;
26411;SDS011;59168;;;2022-07-25T12:35:41;7.10;;;6.50;;
26411;SDS011;59168;;;2022-07-25T12:38:08;6.18;;;5.57;;
26411;SDS011;59168;;;2022-07-25T12:40:35;9.30;;;6.60;;
26411;SDS011;59168;;;2022-07-25T12:43:01;9.27;;;6.45;;
26411;SDS011;59168;;;2022-07-25T12:45:27;7.30;;;6.20;;
26411;SDS011;59168;;;2022-07-25T12:47:53;12.40;;;6.20;;
26411;SDS011;59168;;;2022-07-25T12:50:19;8.20;;;6.68;;
26411;SDS011;59168;;;2022-07-25T12:52:44;7.20;;;6.60;;
26411;SDS011;59168;;;2022-07-25T12:55:12;9.70;;;6.80;;
26411;SDS011;59168;;;2022-07-25T12:57:39;9.35;;;6.60;;
26411;SDS011;59168;;;2022-07-25T13:00:05;8.18;;;7.35;;
26411;SDS011;59168;;;2022-07-25T13:02:34;7.90;;;6.75;;
26411;SDS011;59168;;;2022-07-25T13:04:59;10.02;;;6.82;;
26411;SDS011;59168;;;2022-07-25T13:07:26;7.15;;;6.47;;
26411;SDS011;59168;;;2022-07-25T13:09:51;7.50;;;6.85;;
26411;SDS011;59168;;;2022-07-25T13:12:18;7.13;;;6.45;;
26411;SDS011;59168;;;2022-07-25T13:14:44;7.07;;;6.35;;
26411;SDS011;59168;;;2022-07-25T13:17:10;7.13;;;6.40;;
26411;SDS011;59168;;;2022-07-25T13:19:35;7.22;;;6.63;;
26411;SDS011;59168;;;2022-07-25T13:22:01;8.65;;;6.20;;
26411;SDS011;59168;;;2022-07-25T13:24:27;9.43;;;6.50;;
26411;SDS011;59168;;;2022-07-25T13:26:52;11.35;;;6.90;;
26411;SDS011;59168;;;2022-07-25T13:29:18;6.75;;;5.78;;
26411;SDS011;59168;;;2022-07-25T13:31:43;6.88;;;6.28;;
26411;SDS011;59168;;;2022-07-25T13:34:09;8.38;;;6.45;;
26411;SDS011;59168;;;2022-07-25T13:36:35;7.05;;;6.45;;
26411;SDS011;59168;;;2022-07-25T13:39:02;6.60;;;6.00;;
26411;SDS011;59168;;;2022-07-25T13:41:29;6.75;;;6.07;;
26411;SDS011;59168;;;2022-07-25T13:43:54;6.47;;;5.88;;
26411;SDS011;59168;;;2022-07-25T13:46:22;7.10;;;6.35;;
26411;SDS011;59168;;;2022-07-25T13:48:48;10.57;;;6.30;;
26411;SDS011;59168;;;2022-07-25T13:51:13;8.68;;;6.25;;
26411;SDS011;59168;;;2022-07-25T13:53:39;7.35;;;6.50;;
26411;SDS011;59168;;;2022-07-25T13:56:05;6.45;;;5.88;;
26411;SDS011;59168;;;2022-07-25T13:58:31;6.57;;;5.97;;
26411;SDS011;59168;;;2022-07-25T14:00:56;10.57;;;6.47;;
26411;SDS011;59168;;;2022-07-25T14:03:22;6.70;;;6.13;;
26411;SDS011;59168;;;2022-07-25T14:05:48;8.50;;;6.90;;
26411;SDS011;59168;;;2022-07-25T14:08:14;7.13;;;6.43;;
26411;SDS011;59168;;;2022-07-25T14:10:40;7.13;;;6.53;;
26411;SDS011;59168;;;2022-07-25T14:13:06;6.35;;;5.85;;
26411;SDS011;59168;;;2022-07-25T14:15:32;6.72;;;6.13;;
26411;SDS011;59168;;;2022-07-25T14:17:57;7.05;;;6.22;;
26411;SDS011;59168;;;2022-07-25T14:20:23;7.15;;;6.47;;
26411;SDS011;59168;;;2022-07-25T14:22:49;6.80;;;6.20;;
26411;SDS011;59168;;;2022-07-25T14:25:14;7.50;;;6.68;;
26411;SDS011;59168;;;2022-07-25T14:27:40;7.00;;;6.35;;
26411;SDS011;59168;;;2022-07-25T14:30:07;7.30;;;6.40;;
26411;SDS011;59168;;;2022-07-25T14:32:33;6.53;;;5.93;;
26411;SDS011;59168;;;2022-07-25T14:34:59;6.15;;;5.65;;
26411;SDS011;59168;;;2022-07-25T14:37:26;7.78;;;6.38;;
26411;SDS011;59168;;;2022-07-25T14:39:55;6.72;;;6.05;;
26411;SDS011;59168;;;2022-07-25T14:42:24;6.63;;;5.68;;
26411;SDS011;59168;;;2022-07-25T14:44:50;6.50;;;5.90;;
26411;SDS011;59168;;;2022-07-25T14:47:16;6.68;;;6.03;;
26411;SDS011;59168;;;2022-07-25T14:49:42;7.60;;;5.93;;
26411;SDS011;59168;;;2022-07-25T14:52:07;6.78;;;5.78;;
26411;SDS011;59168;;;2022-07-25T14:54:34;6.75;;;6.03;;
26411;SDS011;59168;;;2022-07-25T14:57:00;6.75;;;6.18;;
26411;SDS011;59168;;;2022-07-25T14:59:26;6.70;;;6.00;;
26411;SDS011;59168;;;2022-07-25T15:01:52;6.72;;;5.75;;
26411;SDS011;59168;;;2022-07-25T15:04:17;10.27;;;6.03;;
26411;SDS011;59168;;;2022-07-25T15:06:45;6.93;;;6.22;;
26411;SDS011;59168;;;2022-07-25T15:09:14;6.65;;;6.03;;
26411;SDS011;59168;;;2022-07-25T15:11:40;6.70;;;6.10;;
26411;SDS011;59168;;;2022-07-25T15:14:05;8.27;;;6.28;;
26411;SDS011;59168;;;2022-07-25T15:16:31;6.72;;;5.88;;
26411;SDS011;59168;;;2022-07-25T15:18:57;6.85;;;5.90;;
26411;SDS011;59168;;;2022-07-25T15:21:23;6.97;;;6.28;;
26411;SDS011;59168;;;2022-07-25T15:23:49;7.60;;;6.38;;
26411;SDS011;59168;;;2022-07-25T15:26:16;6.75;;;6.00;;
26411;SDS011;59168;;;2022-07-25T15:28:42;10.93;;;6.13;;
26411;SDS011;59168;;;2022-07-25T15:31:08;8.32;;;6.47;;
26411;SDS011;59168;;;2022-07-25T15:33:33;6.97;;;5.97;;
26411;SDS011;59168;;;2022-07-25T15:35:59;6.40;;;5.80;;
26411;SDS011;59168;;;2022-07-25T15:38:25;7.68;;;6.15;;
26411;SDS011;59168;;;2022-07-25T15:40:52;7.30;;;5.70;;
26411;SDS011;59168;;;2022-07-25T15:43:18;7.45;;;6.20;;
26411;SDS011;59168;;;2022-07-25T15:45:44;9.18;;;6.10;;
26411;SDS011;59168;;;2022-07-25T15:48:10;6.40;;;5.80;;
26411;SDS011;59168;;;2022-07-25T15:50:39;8.20;;;6.18;;
26411;SDS011;59168;;;2022-07-25T15:53:06;7.28;;;5.72;;
26411;SDS011;59168;;;2022-07-25T15:55:32;7.07;;;5.68;;
26411;SDS011;59168;;;2022-07-25T15:57:58;6.38;;;5.85;;
26411;SDS011;59168;;;2022-07-25T16:00:25;7.43;;;5.38;;
26411;SDS011;59168;;;2022-07-25T16:02:51;6.80;;;6.20;;
26411;SDS011;59168;;;2022-07-25T16:05:17;6.43;;;5.93;;
26411;SDS011;59168;;;2022-07-25T16:07:42;6.32;;;5.60;;
26411;SDS011;59168;;;2022-07-25T16:10:09;6.38;;;5.80;;
26411;SDS011;59168;;;2022-07-25T16:12:35;6.65;;;6.05;;
26411;SDS011;59168;;;2022-07-25T16:15:01;6.15;;;5.65;;
26411;SDS011;59168;;;2022-07-25T16:17:29;6.13;;;5.60;;
26411;SDS011;59168;;;2022-07-25T16:19:54;8.57;;;5.82;;
26411;SDS011;59168;;;2022-07-25T16:22:20;8.18;;;6.15;;
26411;SDS011;59168;;;2022-07-25T16:24:46;8.10;;;6.00;;
26411;SDS011;59168;;;2022-07-25T16:27:12;8.38;;;6.00;;
26411;SDS011;59168;;;2022-07-25T16:29:39;8.20;;;5.70;;
26411;SDS011;59168;;;2022-07-25T16:32:05;6.72;;;6.13;;
26411;SDS011;59168;;;2022-07-25T16:34:31;6.70;;;5.95;;
26411;SDS011;59168;;;2022-07-25T16:36:57;6.28;;;5.68;;
26411;SDS011;59168;;;2022-07-25T16:39:24;7.28;;;5.47;;
26411;SDS011;59168;;;2022-07-25T16:41:50;6.38;;;5.78;;
26411;SDS011;59168;;;2022-07-25T16:44:15;6.72;;;5.80;;
26411;SDS011;59168;;;2022-07-25T16:46:41;6.38;;;5.78;;
26411;SDS011;59168;;;2022-07-25T16:49:07;10.10;;;6.20;;
26411;SDS011;59168;;;2022-07-25T16:51:33;6.93;;;6.22;;
26411;SDS011;59168;;;2022-07-25T16:53:59;7.00;;;6.30;;
26411;SDS011;59168;;;2022-07-25T16:56:24;7.03;;;6.43;;
26411;SDS011;59168;;;2022-07-25T16:58:51;8.57;;;6.43;;
26411;SDS011;59168;;;2022-07-25T17:01:16;11.65;;;6.82;;
26411;SDS011;59168;;;2022-07-25T17:03:42;23.95;;;7.82;;
26411;SDS011;59168;;;2022-07-25T17:06:08;8.32;;;6.43;;
26411;SDS011;59168;;;2022-07-25T17:08:35;8.27;;;6.50;;
26411;SDS011;59168;;;2022-07-25T17:11:01;13.98;;;7.70;;
26411;SDS011;59168;;;2022-07-25T17:13:28;11.65;;;7.10;;
26411;SDS011;59168;;;2022-07-25T17:15:54;10.90;;;7.30;;
26411;SDS011;59168;;;2022-07-25T17:18:20;25.55;;;10.90;;
26411;SDS011;59168;;;2022-07-25T17:20:45;17.13;;;6.72;;
26411;SDS011;59168;;;2022-07-25T17:23:11;8.52;;;7.13;;
26411;SDS011;59168;;;2022-07-25T17:25:38;12.27;;;7.90;;
26411;SDS011;59168;;;2022-07-25T17:28:04;8.32;;;6.05;;
26411;SDS011;59168;;;2022-07-25T17:30:31;13.15;;;8.00;;
26411;SDS011;59168;;;2022-07-25T17:32:57;10.68;;;7.75;;
26411;SDS011;59168;;;2022-07-25T17:35:23;11.77;;;7.47;;
26411;SDS011;59168;;;2022-07-25T17:37:50;11.48;;;6.97;;
26411;SDS011;59168;;;2022-07-25T17:40:16;7.20;;;6.25;;
26411;SDS011;59168;;;2022-07-25T17:42:42;9.88;;;7.40;;
26411;SDS011;59168;;;2022-07-25T17:45:09;13.13;;;8.32;;
26411;SDS011;59168;;;2022-07-25T17:47:35;12.00;;;8.52;;
26411;SDS011;59168;;;2022-07-25T17:50:01;10.40;;;8.25;;
26411;SDS011;59168;;;2022-07-25T17:52:28;8.20;;;7.32;;